createdAt,value
2018-12-07T00:00:02.657Z,11.10
2018-12-07T00:02:06.864Z,11.10
2018-12-07T00:04:11.088Z,11.10
2018-12-07T00:06:14.913Z,11.00
2018-12-07T00:08:23.577Z,11.10
2018-12-07T00:10:27.635Z,11.10
2018-12-07T00:12:36.305Z,11.10
2018-12-07T00:14:45.155Z,11.10
2018-12-07T00:18:53.138Z,11.10
2018-12-07T00:21:01.717Z,11.10
2018-12-07T00:23:10.630Z,11.10
2018-12-07T00:25:19.323Z,11.10
2018-12-07T00:27:28.123Z,11.10
2018-12-07T00:29:33.264Z,11.10
2018-12-07T00:31:42.779Z,11.10
2018-12-07T00:33:46.912Z,11.10
2018-12-07T00:35:50.677Z,11.20
2018-12-07T00:37:59.701Z,11.10
2018-12-07T00:40:04.655Z,11.10
2018-12-07T00:42:11.726Z,11.20
2018-12-07T00:44:22.006Z,11.10
2018-12-07T00:46:31.168Z,11.10
2018-12-07T00:48:35.176Z,11.20
2018-12-07T00:50:43.817Z,11.20
2018-12-07T00:52:47.924Z,11.10
2018-12-07T00:54:56.495Z,11.20
2018-12-07T00:57:05.169Z,11.20
2018-12-07T00:59:14.014Z,11.20
2018-12-07T01:01:24.289Z,11.20
2018-12-07T01:03:32.803Z,11.20
2018-12-07T01:05:41.736Z,11.20
2018-12-07T01:07:45.837Z,11.20
2018-12-07T01:09:49.624Z,11.30
2018-12-07T01:11:53.420Z,11.20
2018-12-07T01:14:02.191Z,11.20
2018-12-07T01:16:06.790Z,11.30
2018-12-07T01:18:12.501Z,11.30
2018-12-07T01:20:21.126Z,11.20
2018-12-07T01:22:25.143Z,11.20
2018-12-07T01:24:33.798Z,11.30
2018-12-07T01:26:39.956Z,11.30
2018-12-07T01:28:43.988Z,11.30
2018-12-07T01:30:52.584Z,11.20
2018-12-07T01:32:56.897Z,11.20
2018-12-07T01:35:00.690Z,11.20
2018-12-07T01:37:13.671Z,11.20
2018-12-07T01:39:22.542Z,11.20
2018-12-07T01:41:26.442Z,11.20
2018-12-07T01:43:30.416Z,11.20
2018-12-07T01:45:39.214Z,11.20
2018-12-07T01:47:49.679Z,11.30
2018-12-07T01:49:53.892Z,11.30
2018-12-07T01:52:02.599Z,11.30
2018-12-07T01:54:11.190Z,11.30
2018-12-07T01:56:20.232Z,11.30
2018-12-07T01:58:28.899Z,11.30
2018-12-07T02:00:37.615Z,11.30
2018-12-07T02:02:47.444Z,11.30
2018-12-07T02:04:51.470Z,11.30
2018-12-07T02:06:55.123Z,11.30
2018-12-07T02:09:01.339Z,11.30
2018-12-07T02:11:11.091Z,11.30
2018-12-07T02:13:19.951Z,11.30
2018-12-07T02:15:24.212Z,11.30
2018-12-07T02:17:32.688Z,11.30
2018-12-07T02:21:40.533Z,11.40
2018-12-07T02:23:49.294Z,11.40
2018-12-07T02:25:53.184Z,11.40
2018-12-07T02:28:01.871Z,11.40
2018-12-07T02:30:10.501Z,11.40
2018-12-07T02:32:19.390Z,11.30
2018-12-07T02:34:28.271Z,11.30
2018-12-07T02:36:37.169Z,11.40
2018-12-07T02:38:46.101Z,11.30
2018-12-07T02:40:55.175Z,11.30
2018-12-07T02:42:59.320Z,11.30
2018-12-07T02:45:08.072Z,11.40
2018-12-07T02:47:22.190Z,11.40
2018-12-07T02:49:26.685Z,11.30
2018-12-07T02:51:35.470Z,11.30
2018-12-07T02:53:39.697Z,11.40
2018-12-07T02:55:43.615Z,11.30
2018-12-07T02:57:52.345Z,11.40
2018-12-07T03:00:01.156Z,11.30
2018-12-07T03:02:07.117Z,11.40
2018-12-07T03:04:15.756Z,11.30
2018-12-07T03:06:19.617Z,11.30
2018-12-07T03:08:28.369Z,11.40
2018-12-07T03:10:32.337Z,11.30
2018-12-07T03:12:36.579Z,11.40
2018-12-07T03:14:45.368Z,11.40
2018-12-07T03:16:55.221Z,11.40
2018-12-07T03:19:04.030Z,11.30
2018-12-07T03:27:22.233Z,11.40
2018-12-07T03:29:31.292Z,11.30
2018-12-07T03:31:35.514Z,11.30
2018-12-07T03:33:39.502Z,11.40
2018-12-07T03:35:43.241Z,11.40
2018-12-07T03:37:47.547Z,11.30
2018-12-07T03:39:50.956Z,11.40
2018-12-07T03:41:59.634Z,11.30
2018-12-07T03:44:03.751Z,11.30
2018-12-07T03:46:07.512Z,11.40
2018-12-07T03:48:11.013Z,11.30
2018-12-07T03:50:19.692Z,11.30
2018-12-07T03:52:28.708Z,11.20
2018-12-07T03:54:37.319Z,11.30
2018-12-07T03:56:41.499Z,11.30
2018-12-07T03:58:50.300Z,11.30
2018-12-07T04:00:54.116Z,11.30
2018-12-07T04:02:57.858Z,11.30
2018-12-07T04:05:01.925Z,11.30
2018-12-07T04:07:05.996Z,11.30
2018-12-07T04:09:14.540Z,11.30
2018-12-07T04:11:23.209Z,11.30
2018-12-07T04:13:32.193Z,11.20
2018-12-07T04:15:36.030Z,11.20
2018-12-07T04:17:44.557Z,11.30
2018-12-07T04:19:53.335Z,11.30
2018-12-07T04:21:57.453Z,11.30
2018-12-07T04:24:01.511Z,11.30
2018-12-07T04:28:09.517Z,11.30
2018-12-07T04:30:24.693Z,11.30
2018-12-07T04:32:33.938Z,11.30
2018-12-07T04:34:38.165Z,11.30
2018-12-07T04:36:42.127Z,11.20
2018-12-07T04:38:45.896Z,11.30
2018-12-07T04:40:55.774Z,11.30
2018-12-07T04:42:59.390Z,11.30
2018-12-07T04:45:03.613Z,11.20
2018-12-07T04:47:07.873Z,11.30
2018-12-07T04:49:16.616Z,11.30
2018-12-07T04:51:20.723Z,11.30
2018-12-07T04:53:29.517Z,11.30
2018-12-07T04:55:38.441Z,11.30
2018-12-07T04:57:47.516Z,11.30
2018-12-07T04:59:51.790Z,11.30
2018-12-07T05:01:55.577Z,11.20
2018-12-07T05:04:04.314Z,11.30
2018-12-07T05:06:13.245Z,11.30
2018-12-07T05:08:22.103Z,11.30
2018-12-07T05:10:26.174Z,11.20
2018-12-07T05:12:35.711Z,11.20
2018-12-07T05:14:44.699Z,11.20
2018-12-07T05:16:53.427Z,11.20
2018-12-07T05:19:02.092Z,11.30
2018-12-07T05:21:06.194Z,11.20
2018-12-07T05:23:09.960Z,11.30
2018-12-07T05:25:13.828Z,11.30
2018-12-07T05:27:19.705Z,11.20
2018-12-07T05:29:28.118Z,11.20
2018-12-07T05:31:32.236Z,11.20
2018-12-07T05:33:36.134Z,11.30
2018-12-07T05:35:45.791Z,11.20
2018-12-07T05:37:54.875Z,11.20
2018-12-07T05:40:04.093Z,11.30
2018-12-07T05:42:12.498Z,11.30
2018-12-07T05:44:16.781Z,11.20
2018-12-07T05:46:20.642Z,11.30
2018-12-07T05:48:30.968Z,11.20
2018-12-07T05:50:35.354Z,11.20
2018-12-07T05:52:39.358Z,11.20
2018-12-07T05:54:47.901Z,11.30
2018-12-07T05:56:56.637Z,11.20
2018-12-07T05:59:05.559Z,11.20
2018-12-07T06:01:14.446Z,11.30
2018-12-07T06:03:18.189Z,11.30
2018-12-07T06:05:26.856Z,11.20
2018-12-07T06:07:30.926Z,11.20
2018-12-07T06:09:39.573Z,11.20
2018-12-07T06:11:43.705Z,11.20
2018-12-07T06:13:52.584Z,11.20
2018-12-07T06:16:01.361Z,11.20
2018-12-07T06:18:05.775Z,11.20
2018-12-07T06:20:14.148Z,11.20
2018-12-07T06:22:20.605Z,11.30
2018-12-07T06:24:23.989Z,11.20
2018-12-07T06:26:30.046Z,11.20
2018-12-07T06:28:33.781Z,11.20
2018-12-07T06:30:37.377Z,11.20
2018-12-07T06:32:43.158Z,11.20
2018-12-07T06:34:51.845Z,11.20
2018-12-07T06:36:56.053Z,11.20
2018-12-07T06:39:05.995Z,11.20
2018-12-07T06:41:09.568Z,11.30
2018-12-07T06:43:19.079Z,11.20
2018-12-07T06:45:28.701Z,11.20
2018-12-07T06:47:37.904Z,11.20
2018-12-07T06:49:46.719Z,11.20
2018-12-07T06:51:50.775Z,11.20
2018-12-07T06:53:54.871Z,11.20
2018-12-07T06:55:58.844Z,11.20
2018-12-07T06:58:02.876Z,11.20
2018-12-07T07:00:07.812Z,11.20
2018-12-07T07:02:11.628Z,11.20
2018-12-07T07:04:15.785Z,11.20
2018-12-07T07:08:35.467Z,11.20
2018-12-07T07:10:44.190Z,11.20
2018-12-07T07:12:52.828Z,11.20
2018-12-07T07:15:04.624Z,11.20
2018-12-07T07:17:08.508Z,11.20
2018-12-07T07:19:17.407Z,11.20
2018-12-07T07:21:26.066Z,11.20
2018-12-07T07:23:30.248Z,11.20
2018-12-07T07:25:34.092Z,11.20
2018-12-07T07:27:42.845Z,11.20
2018-12-07T07:29:51.875Z,11.20
2018-12-07T07:38:11.957Z,11.30
2018-12-07T07:40:16.007Z,11.20
2018-12-07T07:42:22.096Z,11.20
2018-12-07T07:44:26.030Z,11.30
2018-12-07T07:46:29.920Z,11.20
2018-12-07T07:48:38.464Z,11.20
2018-12-07T07:50:42.551Z,11.30
2018-12-07T07:52:52.333Z,11.20
2018-12-07T07:54:56.542Z,11.30
2018-12-07T07:57:05.066Z,11.30
2018-12-07T07:59:09.040Z,11.20
2018-12-07T08:01:14.881Z,11.20
2018-12-07T08:03:18.684Z,11.30
2018-12-07T08:05:22.725Z,11.20
2018-12-07T08:07:26.556Z,11.20
2018-12-07T08:09:35.192Z,11.20
2018-12-07T08:11:39.060Z,11.20
2018-12-07T08:13:48.879Z,11.20
2018-12-07T08:15:57.532Z,11.20
2018-12-07T08:18:01.536Z,11.20
2018-12-07T08:20:10.373Z,11.30
2018-12-07T08:22:14.345Z,11.30
2018-12-07T08:24:23.201Z,11.30
2018-12-07T08:26:27.208Z,11.30
2018-12-07T08:28:31.085Z,11.30
2018-12-07T08:30:40.140Z,11.30
2018-12-07T08:32:43.883Z,11.30
2018-12-07T08:34:47.790Z,11.30
2018-12-07T08:38:55.800Z,11.30
2018-12-07T08:40:59.730Z,11.30
2018-12-07T08:43:08.600Z,11.30
2018-12-07T08:45:12.533Z,11.30
2018-12-07T08:47:21.111Z,11.20
2018-12-07T08:49:30.779Z,11.30
2018-12-07T08:51:39.709Z,11.30
2018-12-07T08:53:43.788Z,11.30
2018-12-07T08:55:47.745Z,11.30
2018-12-07T08:57:56.379Z,11.30
2018-12-07T09:00:02.533Z,11.30
2018-12-07T09:02:06.475Z,11.30
2018-12-07T09:04:10.347Z,11.30
2018-12-07T09:06:14.073Z,11.30
2018-12-07T09:08:17.880Z,11.30
2018-12-07T09:10:21.740Z,11.30
2018-12-07T09:12:25.730Z,11.30
2018-12-07T09:14:34.485Z,11.30
2018-12-07T09:16:38.252Z,11.30
2018-12-07T09:18:46.732Z,11.30
2018-12-07T09:20:55.585Z,11.30
2018-12-07T09:23:04.577Z,11.30
2018-12-07T09:25:08.476Z,11.30
2018-12-07T09:27:12.340Z,11.30
2018-12-07T09:29:16.291Z,11.40
2018-12-07T09:31:20.420Z,11.40
2018-12-07T09:33:28.928Z,11.40
2018-12-07T09:35:37.880Z,11.40
2018-12-07T09:37:47.631Z,11.30
2018-12-07T09:39:51.704Z,11.40
2018-12-07T09:42:00.259Z,11.40
2018-12-07T09:44:06.171Z,11.40
2018-12-07T09:46:14.712Z,11.40
2018-12-07T09:48:18.805Z,11.40
2018-12-07T09:50:27.432Z,11.40
2018-12-07T09:52:36.363Z,11.40
2018-12-07T09:54:45.301Z,11.40
2018-12-07T09:56:54.161Z,11.40
2018-12-07T09:59:03.018Z,11.40
2018-12-07T10:01:09.149Z,11.40
2018-12-07T10:03:17.717Z,11.40
2018-12-07T10:05:21.724Z,11.40
2018-12-07T10:07:28.659Z,11.40
2018-12-07T10:09:32.667Z,11.50
2018-12-07T10:11:41.289Z,11.50
2018-12-07T10:13:45.295Z,11.50
2018-12-07T10:15:49.318Z,11.40
2018-12-07T10:17:53.042Z,11.40
2018-12-07T10:20:01.675Z,11.40
2018-12-07T10:22:10.600Z,11.40
2018-12-07T10:24:19.329Z,11.50
2018-12-07T10:26:28.163Z,11.40
2018-12-07T10:28:32.261Z,11.40
2018-12-07T10:30:35.948Z,11.40
2018-12-07T10:32:44.644Z,11.50
2018-12-07T10:34:49.022Z,11.40
2018-12-07T10:36:52.858Z,11.40
2018-12-07T10:47:11.308Z,11.40
2018-12-07T10:49:15.197Z,11.50
2018-12-07T10:51:19.232Z,11.50
2018-12-07T10:53:27.953Z,11.40
2018-12-07T10:55:36.817Z,11.40
2018-12-07T10:57:45.776Z,11.40
2018-12-07T10:59:49.838Z,11.40
2018-12-07T11:02:04.084Z,11.50
2018-12-07T11:04:18.303Z,11.40
2018-12-07T11:06:28.184Z,11.50
2018-12-07T11:08:42.588Z,11.40
2018-12-07T11:10:51.704Z,11.50
2018-12-07T11:13:01.420Z,11.50
2018-12-07T11:17:54.073Z,11.50
2018-12-07T11:20:03.979Z,11.40
2018-12-07T11:22:13.136Z,11.40
2018-12-07T11:24:27.580Z,11.50
2018-12-07T11:26:42.458Z,11.50
2018-12-07T11:28:54.292Z,11.40
2018-12-07T11:31:04.226Z,11.40
2018-12-07T11:33:13.959Z,11.40
2018-12-07T11:35:24.396Z,11.40
2018-12-07T11:37:32.883Z,11.40
2018-12-07T11:39:41.833Z,11.40
2018-12-07T11:41:50.556Z,11.40
2018-12-07T11:43:59.544Z,11.40
2018-12-07T11:46:08.401Z,11.40
2018-12-07T11:48:12.516Z,11.50
2018-12-07T11:50:16.336Z,11.40
2018-12-07T11:52:22.077Z,11.40
2018-12-07T11:54:26.020Z,11.50
2018-12-07T11:56:29.844Z,11.40
2018-12-07T11:58:33.604Z,11.40
2018-12-07T12:00:42.441Z,11.50
2018-12-07T12:02:46.604Z,11.50
2018-12-07T12:04:50.284Z,11.40
2018-12-07T12:06:54.161Z,11.50
2018-12-07T12:09:04.271Z,11.50
2018-12-07T12:11:07.807Z,11.40
2018-12-07T12:13:16.683Z,11.50
2018-12-07T12:15:20.483Z,11.50
2018-12-07T12:17:26.331Z,11.50
2018-12-07T12:19:34.971Z,11.50
2018-12-07T12:21:39.085Z,11.40
2018-12-07T12:23:43.052Z,11.40
2018-12-07T12:25:51.789Z,11.40
2018-12-07T12:27:55.830Z,11.40
2018-12-07T12:30:05.176Z,11.40
2018-12-07T12:32:14.329Z,11.40
2018-12-07T12:34:20.561Z,11.40
2018-12-07T12:36:29.288Z,11.40
2018-12-07T12:38:33.292Z,11.50
2018-12-07T12:40:37.303Z,11.40
2018-12-07T12:42:45.971Z,11.40
2018-12-07T12:44:50.069Z,11.50
2018-12-07T12:46:58.800Z,11.40
2018-12-07T12:49:07.526Z,11.40
2018-12-07T12:51:11.581Z,11.50
2018-12-07T12:53:15.613Z,11.50
2018-12-07T12:55:24.996Z,11.50
2018-12-07T12:57:29.346Z,11.50
2018-12-07T12:59:33.460Z,11.40
2018-12-07T13:01:39.077Z,11.40
2018-12-07T13:03:42.958Z,11.40
2018-12-07T13:05:51.813Z,11.50
2018-12-07T13:07:55.713Z,11.40
2018-12-07T13:09:59.530Z,11.40
2018-12-07T13:12:05.737Z,11.50
2018-12-07T13:14:14.349Z,11.40
2018-12-07T13:16:22.881Z,11.50
2018-12-07T13:18:31.747Z,11.40
2018-12-07T13:20:35.692Z,11.40
2018-12-07T13:22:46.091Z,11.50
2018-12-07T13:24:50.426Z,11.50
2018-12-07T13:26:54.159Z,11.40
2018-12-07T13:29:02.832Z,11.40
2018-12-07T13:31:06.977Z,11.40
2018-12-07T13:33:15.416Z,11.40
2018-12-07T13:35:21.230Z,11.40
2018-12-07T13:37:30.085Z,11.50
2018-12-07T13:39:39.689Z,11.40
2018-12-07T13:41:50.535Z,11.30
2018-12-07T13:43:54.811Z,11.40
2018-12-07T13:45:58.729Z,11.40
2018-12-07T13:48:02.626Z,11.30
2018-12-07T13:50:17.707Z,11.30
2018-12-07T13:52:21.826Z,11.40
2018-12-07T13:54:27.725Z,11.40
2018-12-07T13:56:31.675Z,11.30
2018-12-07T13:58:35.589Z,11.40
2018-12-07T14:00:39.707Z,11.30
2018-12-07T14:02:43.457Z,11.40
2018-12-07T14:04:47.153Z,11.30
2018-12-07T14:06:50.983Z,11.30
2018-12-07T14:08:54.832Z,11.40
2018-12-07T14:11:04.580Z,11.40
2018-12-07T14:13:08.750Z,11.40
2018-12-07T14:15:12.465Z,11.40
2018-12-07T14:17:21.270Z,11.40
2018-12-07T14:19:30.101Z,11.30
2018-12-07T14:21:35.976Z,11.30
2018-12-07T14:23:44.701Z,11.30
2018-12-07T14:25:53.289Z,11.30
2018-12-07T14:27:57.474Z,11.30
2018-12-07T14:30:01.215Z,11.40
2018-12-07T14:32:06.836Z,11.30
2018-12-07T14:34:15.544Z,11.30
2018-12-07T14:36:24.300Z,11.30
2018-12-07T14:38:28.027Z,11.30
2018-12-07T14:40:31.957Z,11.40
2018-12-07T14:42:35.961Z,11.30
2018-12-07T14:44:45.529Z,11.30
2018-12-07T14:46:49.480Z,11.30
2018-12-07T14:48:57.988Z,11.30
2018-12-07T14:51:02.002Z,11.30
2018-12-07T14:53:10.783Z,11.30
2018-12-07T14:55:15.021Z,11.40
2018-12-07T14:57:20.877Z,11.30
2018-12-07T14:59:25.027Z,11.30
2018-12-07T15:01:29.059Z,11.30
2018-12-07T15:03:38.620Z,11.30
2018-12-07T15:05:47.225Z,11.30
2018-12-07T15:07:56.047Z,11.30
2018-12-07T15:10:05.855Z,11.30
2018-12-07T15:12:09.848Z,11.40
2018-12-07T15:14:19.537Z,11.40
2018-12-07T15:16:28.521Z,11.30
2018-12-07T15:18:32.416Z,11.30
2018-12-07T15:20:36.860Z,11.30
2018-12-07T15:22:46.285Z,11.30
2018-12-07T15:24:55.100Z,11.20
2018-12-07T15:27:03.700Z,11.20
2018-12-07T15:29:12.949Z,11.30
2018-12-07T15:31:22.707Z,11.30
2018-12-07T15:33:28.531Z,11.20
2018-12-07T15:35:37.193Z,11.30
2018-12-07T15:37:41.279Z,11.30
2018-12-07T15:39:50.096Z,11.10
2018-12-07T15:41:58.716Z,11.30
2018-12-07T15:44:08.480Z,11.20
2018-12-07T15:46:17.729Z,11.20
2018-12-07T15:48:26.103Z,11.20
2018-12-07T15:50:32.192Z,11.20
2018-12-07T15:52:36.073Z,11.30
2018-12-07T15:54:44.824Z,11.20
2018-12-07T15:56:53.743Z,11.10
2018-12-07T15:58:58.004Z,11.20
2018-12-07T16:01:01.755Z,11.20
2018-12-07T16:03:05.576Z,11.30
2018-12-07T16:05:09.466Z,11.20
2018-12-07T16:07:18.319Z,11.20
2018-12-07T16:09:22.252Z,11.20
2018-12-07T16:11:28.031Z,11.20
2018-12-07T16:13:32.002Z,11.20
2018-12-07T16:15:35.871Z,11.20
2018-12-07T16:17:39.933Z,11.20
2018-12-07T16:19:48.452Z,11.20
2018-12-07T16:21:57.177Z,11.20
2018-12-07T16:24:01.352Z,11.20
2018-12-07T16:26:07.911Z,11.10
2018-12-07T16:28:11.805Z,11.10
2018-12-07T16:30:15.766Z,11.10
2018-12-07T16:32:22.533Z,11.10
2018-12-07T16:34:26.395Z,11.20
2018-12-07T16:36:30.076Z,11.10
2018-12-07T16:38:34.058Z,11.10
2018-12-07T16:40:42.619Z,11.20
2018-12-07T16:42:51.357Z,11.20
2018-12-07T16:45:00.417Z,11.20
2018-12-07T16:47:06.602Z,11.20
2018-12-07T16:49:15.352Z,11.20
2018-12-07T16:51:24.068Z,11.10
2018-12-07T16:53:33.062Z,11.20
2018-12-07T16:55:41.766Z,11.20
2018-12-07T16:57:50.866Z,11.10
2018-12-07T16:59:55.036Z,11.10
2018-12-07T17:02:01.375Z,11.10
2018-12-07T17:04:07.200Z,11.10
2018-12-07T17:06:15.718Z,11.20
2018-12-07T17:08:25.093Z,11.10
2018-12-07T17:10:33.897Z,11.10
2018-12-07T17:12:42.857Z,11.20
2018-12-07T17:14:51.402Z,11.20
2018-12-07T17:17:00.310Z,11.10
2018-12-07T17:19:09.053Z,11.20
2018-12-07T17:21:18.166Z,11.10
2018-12-07T17:23:21.815Z,11.10
2018-12-07T17:25:30.767Z,11.10
2018-12-07T17:27:34.690Z,11.10
2018-12-07T17:29:41.447Z,11.00
2018-12-07T17:31:47.528Z,11.00
2018-12-07T17:33:51.349Z,11.00
2018-12-07T17:35:54.976Z,11.10
2018-12-07T17:37:58.999Z,11.00
2018-12-07T17:40:07.774Z,11.00
2018-12-07T17:42:11.541Z,11.00
2018-12-07T17:44:15.601Z,10.90
2018-12-07T17:46:20.056Z,10.90
2018-12-07T17:48:25.934Z,10.80
2018-12-07T17:50:34.795Z,10.80
2018-12-07T17:52:38.843Z,10.70
2018-12-07T17:54:47.625Z,10.40
2018-12-07T17:56:51.532Z,10.00
2018-12-07T17:58:55.496Z,9.90
2018-12-07T18:00:59.165Z,9.70
2018-12-07T18:03:02.907Z,9.60
2018-12-07T18:05:07.681Z,9.70
2018-12-07T18:07:11.781Z,9.60
2018-12-07T18:09:20.454Z,9.60
2018-12-07T18:11:29.424Z,9.50
2018-12-07T18:13:35.593Z,9.40
2018-12-07T18:15:39.204Z,9.30
2018-12-07T18:17:47.985Z,9.20
2018-12-07T18:19:52.219Z,9.20
2018-12-07T18:21:56.264Z,9.20
2018-12-07T18:24:05.706Z,9.10
2018-12-07T18:26:11.857Z,9.10
2018-12-07T18:28:15.629Z,9.20
2018-12-07T18:30:19.968Z,9.00
2018-12-07T18:32:29.488Z,8.90
2018-12-07T18:34:38.800Z,8.90
2018-12-07T18:36:47.603Z,9.00
2018-12-07T18:38:51.733Z,8.80
2018-12-07T18:41:01.009Z,8.80
2018-12-07T18:43:09.857Z,8.80
2018-12-07T18:45:18.909Z,8.90
2018-12-07T18:47:22.860Z,8.70
2018-12-07T18:49:31.422Z,8.60
2018-12-07T18:51:40.467Z,8.50
2018-12-07T18:53:44.719Z,8.60
2018-12-07T18:55:53.505Z,8.50
2018-12-07T18:58:02.231Z,8.30
2018-12-07T19:00:07.822Z,8.40
2018-12-07T19:02:12.369Z,8.20
2018-12-07T19:04:19.103Z,8.20
2018-12-07T19:06:23.096Z,8.20
2018-12-07T19:08:27.096Z,8.00
2018-12-07T19:10:31.195Z,8.10
2018-12-07T19:12:34.884Z,8.10
2018-12-07T19:14:38.544Z,8.10
2018-12-07T19:16:47.605Z,8.10
2018-12-07T19:18:51.518Z,8.00
2018-12-07T19:21:00.483Z,7.90
2018-12-07T19:23:10.066Z,8.00
2018-12-07T19:25:14.272Z,8.00
2018-12-07T19:27:18.942Z,7.90
2018-12-07T19:29:22.721Z,7.90
2018-12-07T19:31:31.395Z,8.00
2018-12-07T19:33:35.529Z,7.90
2018-12-07T19:35:45.144Z,8.10
2018-12-07T19:37:53.921Z,7.90
2018-12-07T19:40:02.799Z,8.00
2018-12-07T19:42:06.638Z,8.10
2018-12-07T19:44:10.502Z,8.00
2018-12-07T19:46:20.308Z,7.90
2018-12-07T19:48:24.453Z,8.00
2018-12-07T19:50:28.317Z,8.00
2018-12-07T19:52:32.298Z,7.90
2018-12-07T19:54:40.883Z,7.90
2018-12-07T19:56:44.945Z,7.70
2018-12-07T19:58:53.756Z,7.70
2018-12-07T20:00:59.478Z,7.80
2018-12-07T20:03:03.437Z,7.70
2018-12-07T20:05:07.679Z,7.70
2018-12-07T20:07:17.226Z,7.60
2018-12-07T20:09:20.991Z,7.70
2018-12-07T20:11:26.739Z,7.60
2018-12-07T20:13:31.012Z,7.50
2018-12-07T20:15:39.540Z,7.50
2018-12-07T20:17:48.735Z,7.40
2018-12-07T20:19:52.763Z,7.40
2018-12-07T20:21:56.639Z,7.40
2018-12-07T20:24:06.129Z,7.50
2018-12-07T20:26:14.878Z,7.50
2018-12-07T20:28:23.710Z,7.50
2018-12-07T20:30:32.602Z,7.50
2018-12-07T20:36:52.286Z,7.50
2018-12-07T20:39:01.116Z,7.50
2018-12-07T20:41:10.096Z,7.40
2018-12-07T20:43:14.710Z,7.30
2018-12-07T20:45:19.917Z,7.40
2018-12-07T20:47:29.412Z,7.40
2018-12-07T20:49:39.536Z,7.40
2018-12-07T20:51:44.409Z,7.30
2018-12-07T20:53:48.838Z,7.30
2018-12-07T20:55:53.869Z,7.30
2018-12-07T20:57:58.755Z,7.40
2018-12-07T21:00:09.115Z,7.40
2018-12-07T21:02:14.652Z,7.20
2018-12-07T21:04:31.346Z,7.30
2018-12-07T21:09:43.836Z,7.30
2018-12-07T21:11:55.961Z,7.40
2018-12-07T21:14:05.284Z,7.40
2018-12-07T21:19:10.909Z,7.30
2018-12-07T21:21:14.810Z,7.30
2018-12-07T21:23:18.901Z,7.30
2018-12-07T21:25:22.682Z,7.20
2018-12-07T21:27:31.239Z,7.20
2018-12-07T21:29:35.117Z,7.30
2018-12-07T21:31:43.907Z,7.30
2018-12-07T21:33:50.006Z,7.30
2018-12-07T21:36:22.113Z,7.20
2018-12-07T21:38:26.255Z,7.30
2018-12-07T21:40:34.767Z,7.30
2018-12-07T21:42:38.617Z,7.30
2018-12-07T21:44:42.413Z,7.20
2018-12-07T21:46:46.164Z,7.10
2018-12-07T21:48:54.660Z,7.00
2018-12-07T21:51:02.469Z,7.00
2018-12-07T21:53:11.490Z,7.00
2018-12-07T21:55:21.213Z,7.00
2018-12-07T21:57:30.926Z,6.90
2018-12-07T21:59:34.910Z,7.00
2018-12-07T22:01:38.947Z,6.90
2018-12-07T22:03:43.136Z,6.90
2018-12-07T22:05:46.992Z,6.80
2018-12-07T22:07:55.506Z,6.90
2018-12-07T22:10:04.352Z,6.80
2018-12-07T22:12:13.227Z,6.70
2018-12-07T22:14:16.937Z,6.70
2018-12-07T22:16:25.544Z,6.70
2018-12-07T22:18:29.627Z,6.80
2018-12-07T22:20:39.087Z,6.60
2018-12-07T22:22:43.251Z,6.70
2018-12-07T22:24:52.691Z,6.70
2018-12-07T22:27:01.521Z,6.70
2018-12-07T22:29:05.819Z,6.60
2018-12-07T22:31:14.331Z,6.70
2018-12-07T22:33:20.925Z,6.70
2018-12-07T22:35:25.638Z,6.70
2018-12-07T22:37:29.379Z,6.80
2018-12-07T22:39:40.273Z,6.70
2018-12-07T22:41:44.304Z,6.70
2018-12-07T22:43:53.258Z,6.60
2018-12-07T22:45:57.040Z,6.60
2018-12-07T22:48:06.102Z,6.60
2018-12-07T22:50:15.760Z,6.70
2018-12-07T22:52:21.930Z,6.60
2018-12-07T22:54:25.575Z,6.60
2018-12-07T22:56:29.554Z,6.70
2018-12-07T22:58:33.421Z,6.70
2018-12-07T23:00:39.505Z,6.60
2018-12-07T23:02:45.342Z,6.50
2018-12-07T23:04:49.141Z,6.50
2018-12-07T23:06:53.004Z,6.70
2018-12-07T23:08:57.068Z,6.70
2018-12-07T23:11:02.917Z,6.60
2018-12-07T23:13:11.656Z,6.60
2018-12-07T23:15:20.589Z,6.60
2018-12-07T23:17:24.573Z,6.50
2018-12-07T23:19:33.256Z,6.50
2018-12-07T23:21:37.066Z,6.50
2018-12-07T23:23:41.087Z,6.50
2018-12-07T23:25:47.062Z,6.50
2018-12-07T23:27:50.908Z,6.50
2018-12-07T23:29:59.813Z,6.50
2018-12-07T23:32:03.883Z,6.50
2018-12-07T23:34:08.136Z,6.50
2018-12-07T23:36:16.699Z,6.50
2018-12-07T23:38:20.771Z,6.60
2018-12-07T23:40:24.580Z,6.60
2018-12-07T23:42:28.599Z,6.60
2018-12-07T23:44:32.515Z,6.50
2018-12-07T23:46:36.584Z,6.50
2018-12-07T23:48:45.325Z,6.50
2018-12-07T23:50:54.069Z,6.50
2018-12-07T23:52:58.395Z,6.50
2018-12-07T23:55:06.900Z,6.50
2018-12-07T23:57:15.639Z,6.50
2018-12-07T23:59:19.837Z,6.30
